sensor_id;sensor_type;location;lat;lon;timestamp;P1;durP1;ratioP1;P2;durP2;ratioP2
8285;SDS011;4181;43.416;24.598;2023-01-31T00:00:51;19.30;;;10.60;;
8285;SDS011;4181;43.416;24.598;2023-01-31T00:03:16;18.60;;;10.93;;
8285;SDS011;4181;43.416;24.598;2023-01-31T00:05:42;20.90;;;12.30;;
8285;SDS011;4181;43.416;24.598;2023-01-31T00:08:07;20.03;;;11.23;;
8285;SDS011;4181;43.416;24.598;2023-01-31T00:10:33;18.23;;;11.87;;
8285;SDS011;4181;43.416;24.598;2023-01-31T00:12:58;21.40;;;11.30;;
8285;SDS011;4181;43.416;24.598;2023-01-31T00:15:24;16.90;;;11.30;;
8285;SDS011;4181;43.416;24.598;2023-01-31T00:17:49;16.93;;;11.23;;
8285;SDS011;4181;43.416;24.598;2023-01-31T00:20:14;17.07;;;11.00;;
8285;SDS011;4181;43.416;24.598;2023-01-31T00:22:40;19.43;;;12.00;;
8285;SDS011;4181;43.416;24.598;2023-01-31T00:25:06;18.73;;;11.53;;
8285;SDS011;4181;43.416;24.598;2023-01-31T00:27:31;19.93;;;11.83;;
8285;SDS011;4181;43.416;24.598;2023-01-31T00:29:57;18.27;;;11.03;;
8285;SDS011;4181;43.416;24.598;2023-01-31T00:32:22;19.67;;;11.17;;
8285;SDS011;4181;43.416;24.598;2023-01-31T00:34:50;20.27;;;12.40;;
8285;SDS011;4181;43.416;24.598;2023-01-31T00:37:19;18.17;;;10.87;;
8285;SDS011;4181;43.416;24.598;2023-01-31T00:39:45;17.03;;;9.93;;
8285;SDS011;4181;43.416;24.598;2023-01-31T00:42:11;15.63;;;9.90;;
8285;SDS011;4181;43.416;24.598;2023-01-31T00:44:36;13.60;;;8.57;;
8285;SDS011;4181;43.416;24.598;2023-01-31T00:47:02;12.63;;;8.83;;
8285;SDS011;4181;43.416;24.598;2023-01-31T00:49:28;13.73;;;8.70;;
8285;SDS011;4181;43.416;24.598;2023-01-31T00:51:53;13.10;;;8.40;;
8285;SDS011;4181;43.416;24.598;2023-01-31T00:54:18;12.37;;;7.87;;
8285;SDS011;4181;43.416;24.598;2023-01-31T00:56:44;14.03;;;8.37;;
8285;SDS011;4181;43.416;24.598;2023-01-31T00:59:10;14.77;;;7.93;;
8285;SDS011;4181;43.416;24.598;2023-01-31T01:01:36;13.07;;;7.67;;
8285;SDS011;4181;43.416;24.598;2023-01-31T01:04:02;13.80;;;8.30;;
8285;SDS011;4181;43.416;24.598;2023-01-31T01:06:27;12.50;;;8.27;;
8285;SDS011;4181;43.416;24.598;2023-01-31T01:08:54;13.47;;;8.87;;
8285;SDS011;4181;43.416;24.598;2023-01-31T01:11:24;13.40;;;8.00;;
8285;SDS011;4181;43.416;24.598;2023-01-31T01:13:52;12.10;;;7.60;;
8285;SDS011;4181;43.416;24.598;2023-01-31T01:16:22;12.60;;;8.07;;
8285;SDS011;4181;43.416;24.598;2023-01-31T01:19:12;13.27;;;7.30;;
8285;SDS011;4181;43.416;24.598;2023-01-31T01:21:40;11.53;;;7.83;;
8285;SDS011;4181;43.416;24.598;2023-01-31T01:24:06;11.17;;;7.80;;
8285;SDS011;4181;43.416;24.598;2023-01-31T01:26:36;12.47;;;7.70;;
8285;SDS011;4181;43.416;24.598;2023-01-31T01:29:02;11.17;;;7.60;;
8285;SDS011;4181;43.416;24.598;2023-01-31T01:31:28;11.27;;;7.33;;
8285;SDS011;4181;43.416;24.598;2023-01-31T01:33:55;12.60;;;7.53;;
8285;SDS011;4181;43.416;24.598;2023-01-31T01:36:24;12.67;;;7.47;;
8285;SDS011;4181;43.416;24.598;2023-01-31T01:38:50;13.47;;;7.87;;
8285;SDS011;4181;43.416;24.598;2023-01-31T01:41:17;12.87;;;7.47;;
8285;SDS011;4181;43.416;24.598;2023-01-31T01:43:44;9.77;;;6.73;;
8285;SDS011;4181;43.416;24.598;2023-01-31T01:48:53;13.43;;;7.70;;
8285;SDS011;4181;43.416;24.598;2023-01-31T01:51:24;11.67;;;7.20;;
8285;SDS011;4181;43.416;24.598;2023-01-31T01:53:54;12.30;;;7.40;;
8285;SDS011;4181;43.416;24.598;2023-01-31T01:56:25;11.37;;;6.93;;
8285;SDS011;4181;43.416;24.598;2023-01-31T01:59:00;11.17;;;7.67;;
8285;SDS011;4181;43.416;24.598;2023-01-31T02:01:33;11.40;;;7.50;;
8285;SDS011;4181;43.416;24.598;2023-01-31T02:04:01;11.33;;;7.63;;
8285;SDS011;4181;43.416;24.598;2023-01-31T02:06:29;12.33;;;7.83;;
8285;SDS011;4181;43.416;24.598;2023-01-31T02:08:55;15.50;;;8.13;;
8285;SDS011;4181;43.416;24.598;2023-01-31T02:11:24;12.90;;;7.90;;
8285;SDS011;4181;43.416;24.598;2023-01-31T02:13:53;13.93;;;7.93;;
8285;SDS011;4181;43.416;24.598;2023-01-31T02:16:24;12.70;;;8.80;;
8285;SDS011;4181;43.416;24.598;2023-01-31T02:18:49;14.30;;;8.33;;
8285;SDS011;4181;43.416;24.598;2023-01-31T02:21:24;13.90;;;8.53;;
8285;SDS011;4181;43.416;24.598;2023-01-31T02:26:46;13.80;;;8.20;;
8285;SDS011;4181;43.416;24.598;2023-01-31T02:40:48;14.07;;;9.03;;
8285;SDS011;4181;43.416;24.598;2023-01-31T02:43:40;14.37;;;7.93;;
8285;SDS011;4181;43.416;24.598;2023-01-31T02:46:29;16.60;;;10.27;;
8285;SDS011;4181;43.416;24.598;2023-01-31T02:49:23;13.67;;;8.07;;
8285;SDS011;4181;43.416;24.598;2023-01-31T02:52:10;15.93;;;8.90;;
8285;SDS011;4181;43.416;24.598;2023-01-31T02:54:40;15.57;;;9.43;;
8285;SDS011;4181;43.416;24.598;2023-01-31T02:57:35;16.50;;;9.73;;
8285;SDS011;4181;43.416;24.598;2023-01-31T03:00:02;14.63;;;8.60;;
8285;SDS011;4181;43.416;24.598;2023-01-31T03:02:30;14.17;;;8.83;;
8285;SDS011;4181;43.416;24.598;2023-01-31T03:04:56;16.17;;;8.90;;
8285;SDS011;4181;43.416;24.598;2023-01-31T03:07:22;17.03;;;9.40;;
8285;SDS011;4181;43.416;24.598;2023-01-31T03:18:12;15.97;;;9.53;;
8285;SDS011;4181;43.416;24.598;2023-01-31T03:23:22;15.87;;;9.53;;
8285;SDS011;4181;43.416;24.598;2023-01-31T03:25:53;15.97;;;9.77;;
8285;SDS011;4181;43.416;24.598;2023-01-31T03:28:22;16.10;;;9.37;;
8285;SDS011;4181;43.416;24.598;2023-01-31T03:30:54;15.27;;;9.60;;
8285;SDS011;4181;43.416;24.598;2023-01-31T03:33:23;18.67;;;10.43;;
8285;SDS011;4181;43.416;24.598;2023-01-31T03:35:56;15.97;;;10.27;;
8285;SDS011;4181;43.416;24.598;2023-01-31T03:38:33;16.37;;;9.73;;
8285;SDS011;4181;43.416;24.598;2023-01-31T03:41:07;16.93;;;9.83;;
8285;SDS011;4181;43.416;24.598;2023-01-31T03:43:58;15.57;;;10.03;;
8285;SDS011;4181;43.416;24.598;2023-01-31T03:46:33;18.77;;;10.33;;
8285;SDS011;4181;43.416;24.598;2023-01-31T03:49:05;16.23;;;9.10;;
8285;SDS011;4181;43.416;24.598;2023-01-31T03:51:35;17.90;;;10.80;;
8285;SDS011;4181;43.416;24.598;2023-01-31T03:54:05;21.67;;;12.37;;
8285;SDS011;4181;43.416;24.598;2023-01-31T03:56:39;20.37;;;11.33;;
8285;SDS011;4181;43.416;24.598;2023-01-31T03:59:27;15.57;;;10.53;;
8285;SDS011;4181;43.416;24.598;2023-01-31T04:01:56;19.47;;;10.33;;
8285;SDS011;4181;43.416;24.598;2023-01-31T04:04:31;19.27;;;11.37;;
8285;SDS011;4181;43.416;24.598;2023-01-31T04:07:12;17.37;;;10.37;;
8285;SDS011;4181;43.416;24.598;2023-01-31T04:09:37;18.53;;;10.83;;
8285;SDS011;4181;43.416;24.598;2023-01-31T04:12:03;15.23;;;10.43;;
8285;SDS011;4181;43.416;24.598;2023-01-31T04:14:29;17.30;;;10.70;;
8285;SDS011;4181;43.416;24.598;2023-01-31T04:16:55;16.57;;;10.73;;
8285;SDS011;4181;43.416;24.598;2023-01-31T04:19:20;20.97;;;10.93;;
8285;SDS011;4181;43.416;24.598;2023-01-31T04:21:46;17.87;;;10.77;;
8285;SDS011;4181;43.416;24.598;2023-01-31T04:24:11;19.90;;;11.17;;
8285;SDS011;4181;43.416;24.598;2023-01-31T04:26:37;20.37;;;11.17;;
8285;SDS011;4181;43.416;24.598;2023-01-31T04:29:03;16.73;;;10.37;;
8285;SDS011;4181;43.416;24.598;2023-01-31T04:31:28;17.80;;;11.53;;
8285;SDS011;4181;43.416;24.598;2023-01-31T04:33:54;19.63;;;11.43;;
8285;SDS011;4181;43.416;24.598;2023-01-31T04:36:22;20.70;;;11.43;;
8285;SDS011;4181;43.416;24.598;2023-01-31T04:38:50;22.53;;;12.40;;
8285;SDS011;4181;43.416;24.598;2023-01-31T04:41:16;18.30;;;11.70;;
8285;SDS011;4181;43.416;24.598;2023-01-31T04:43:41;18.27;;;11.50;;
8285;SDS011;4181;43.416;24.598;2023-01-31T04:46:06;19.07;;;12.50;;
8285;SDS011;4181;43.416;24.598;2023-01-31T04:48:32;19.10;;;11.77;;
8285;SDS011;4181;43.416;24.598;2023-01-31T04:50:58;18.23;;;11.10;;
8285;SDS011;4181;43.416;24.598;2023-01-31T04:53:23;30.70;;;17.13;;
8285;SDS011;4181;43.416;24.598;2023-01-31T04:55:52;22.13;;;13.43;;
8285;SDS011;4181;43.416;24.598;2023-01-31T04:58:17;23.67;;;12.90;;
8285;SDS011;4181;43.416;24.598;2023-01-31T05:00:43;21.73;;;12.93;;
8285;SDS011;4181;43.416;24.598;2023-01-31T05:03:09;23.40;;;13.07;;
8285;SDS011;4181;43.416;24.598;2023-01-31T05:05:34;21.30;;;12.70;;
8285;SDS011;4181;43.416;24.598;2023-01-31T05:08:00;21.97;;;13.33;;
8285;SDS011;4181;43.416;24.598;2023-01-31T05:10:25;20.10;;;12.90;;
8285;SDS011;4181;43.416;24.598;2023-01-31T05:12:50;22.13;;;12.73;;
8285;SDS011;4181;43.416;24.598;2023-01-31T05:15:16;20.97;;;13.47;;
8285;SDS011;4181;43.416;24.598;2023-01-31T05:17:41;22.53;;;13.50;;
8285;SDS011;4181;43.416;24.598;2023-01-31T05:20:07;21.40;;;13.40;;
8285;SDS011;4181;43.416;24.598;2023-01-31T05:22:33;23.60;;;14.13;;
8285;SDS011;4181;43.416;24.598;2023-01-31T05:24:58;22.97;;;12.90;;
8285;SDS011;4181;43.416;24.598;2023-01-31T05:27:24;22.27;;;13.40;;
8285;SDS011;4181;43.416;24.598;2023-01-31T05:29:50;24.03;;;12.77;;
8285;SDS011;4181;43.416;24.598;2023-01-31T05:32:16;22.10;;;13.03;;
8285;SDS011;4181;43.416;24.598;2023-01-31T05:34:43;23.07;;;13.90;;
8285;SDS011;4181;43.416;24.598;2023-01-31T05:37:09;22.53;;;14.10;;
8285;SDS011;4181;43.416;24.598;2023-01-31T05:39:34;23.57;;;13.97;;
8285;SDS011;4181;43.416;24.598;2023-01-31T05:42:00;21.13;;;13.07;;
8285;SDS011;4181;43.416;24.598;2023-01-31T05:44:26;21.27;;;13.57;;
8285;SDS011;4181;43.416;24.598;2023-01-31T05:46:51;21.30;;;13.40;;
8285;SDS011;4181;43.416;24.598;2023-01-31T05:49:17;24.90;;;13.27;;
8285;SDS011;4181;43.416;24.598;2023-01-31T05:51:42;23.03;;;12.27;;
8285;SDS011;4181;43.416;24.598;2023-01-31T05:54:09;20.53;;;13.00;;
8285;SDS011;4181;43.416;24.598;2023-01-31T05:56:35;20.73;;;13.13;;
8285;SDS011;4181;43.416;24.598;2023-01-31T05:59:01;26.80;;;14.30;;
8285;SDS011;4181;43.416;24.598;2023-01-31T06:01:27;24.07;;;12.97;;
8285;SDS011;4181;43.416;24.598;2023-01-31T06:03:53;20.97;;;12.63;;
8285;SDS011;4181;43.416;24.598;2023-01-31T06:06:19;22.27;;;12.93;;
8285;SDS011;4181;43.416;24.598;2023-01-31T06:08:45;31.70;;;12.43;;
8285;SDS011;4181;43.416;24.598;2023-01-31T06:11:11;29.17;;;14.57;;
8285;SDS011;4181;43.416;24.598;2023-01-31T06:13:37;20.57;;;12.33;;
8285;SDS011;4181;43.416;24.598;2023-01-31T06:16:03;22.00;;;13.00;;
8285;SDS011;4181;43.416;24.598;2023-01-31T06:18:29;19.63;;;12.03;;
8285;SDS011;4181;43.416;24.598;2023-01-31T06:20:55;23.33;;;14.23;;
8285;SDS011;4181;43.416;24.598;2023-01-31T06:23:20;29.20;;;17.47;;
8285;SDS011;4181;43.416;24.598;2023-01-31T06:25:49;25.57;;;14.97;;
8285;SDS011;4181;43.416;24.598;2023-01-31T06:28:16;21.93;;;14.07;;
8285;SDS011;4181;43.416;24.598;2023-01-31T06:30:41;21.47;;;12.37;;
8285;SDS011;4181;43.416;24.598;2023-01-31T06:33:07;22.07;;;13.10;;
8285;SDS011;4181;43.416;24.598;2023-01-31T06:35:33;25.33;;;13.40;;
8285;SDS011;4181;43.416;24.598;2023-01-31T06:37:59;24.63;;;12.60;;
8285;SDS011;4181;43.416;24.598;2023-01-31T06:40:24;23.83;;;13.60;;
8285;SDS011;4181;43.416;24.598;2023-01-31T06:42:50;20.77;;;13.03;;
8285;SDS011;4181;43.416;24.598;2023-01-31T06:45:15;23.03;;;12.80;;
8285;SDS011;4181;43.416;24.598;2023-01-31T06:47:45;22.47;;;14.37;;
8285;SDS011;4181;43.416;24.598;2023-01-31T06:50:11;23.77;;;14.67;;
8285;SDS011;4181;43.416;24.598;2023-01-31T06:52:37;23.80;;;13.87;;
8285;SDS011;4181;43.416;24.598;2023-01-31T06:55:03;21.33;;;13.10;;
8285;SDS011;4181;43.416;24.598;2023-01-31T06:57:30;20.30;;;13.63;;
8285;SDS011;4181;43.416;24.598;2023-01-31T06:59:55;21.83;;;13.50;;
8285;SDS011;4181;43.416;24.598;2023-01-31T07:02:20;22.40;;;14.10;;
8285;SDS011;4181;43.416;24.598;2023-01-31T07:04:46;24.63;;;14.80;;
8285;SDS011;4181;43.416;24.598;2023-01-31T07:07:11;21.97;;;12.77;;
8285;SDS011;4181;43.416;24.598;2023-01-31T07:09:38;24.23;;;13.37;;
8285;SDS011;4181;43.416;24.598;2023-01-31T07:12:03;23.90;;;13.03;;
8285;SDS011;4181;43.416;24.598;2023-01-31T07:14:29;21.60;;;13.60;;
8285;SDS011;4181;43.416;24.598;2023-01-31T07:16:54;20.27;;;13.07;;
8285;SDS011;4181;43.416;24.598;2023-01-31T07:19:20;25.00;;;14.17;;
8285;SDS011;4181;43.416;24.598;2023-01-31T07:21:45;23.10;;;14.63;;
8285;SDS011;4181;43.416;24.598;2023-01-31T07:24:13;22.10;;;14.03;;
8285;SDS011;4181;43.416;24.598;2023-01-31T07:26:41;22.57;;;13.47;;
8285;SDS011;4181;43.416;24.598;2023-01-31T07:29:06;23.90;;;13.80;;
8285;SDS011;4181;43.416;24.598;2023-01-31T07:31:32;24.60;;;15.40;;
8285;SDS011;4181;43.416;24.598;2023-01-31T07:33:58;23.23;;;15.87;;
8285;SDS011;4181;43.416;24.598;2023-01-31T07:36:24;22.27;;;14.03;;
8285;SDS011;4181;43.416;24.598;2023-01-31T07:38:54;21.57;;;13.63;;
8285;SDS011;4181;43.416;24.598;2023-01-31T07:41:20;23.43;;;13.50;;
8285;SDS011;4181;43.416;24.598;2023-01-31T07:43:46;21.23;;;12.77;;
8285;SDS011;4181;43.416;24.598;2023-01-31T07:46:12;37.90;;;22.07;;
8285;SDS011;4181;43.416;24.598;2023-01-31T07:48:37;23.77;;;14.30;;
8285;SDS011;4181;43.416;24.598;2023-01-31T07:51:05;20.47;;;12.40;;
8285;SDS011;4181;43.416;24.598;2023-01-31T07:53:31;21.27;;;13.17;;
8285;SDS011;4181;43.416;24.598;2023-01-31T07:56:12;19.47;;;12.03;;
8285;SDS011;4181;43.416;24.598;2023-01-31T07:58:42;22.00;;;12.30;;
8285;SDS011;4181;43.416;24.598;2023-01-31T08:01:11;19.53;;;13.43;;
8285;SDS011;4181;43.416;24.598;2023-01-31T08:03:58;19.27;;;12.67;;
8285;SDS011;4181;43.416;24.598;2023-01-31T08:06:23;18.70;;;12.70;;
8285;SDS011;4181;43.416;24.598;2023-01-31T08:08:49;19.60;;;12.10;;
8285;SDS011;4181;43.416;24.598;2023-01-31T08:11:14;21.67;;;12.63;;
8285;SDS011;4181;43.416;24.598;2023-01-31T08:13:40;18.77;;;12.07;;
8285;SDS011;4181;43.416;24.598;2023-01-31T08:16:06;18.53;;;12.37;;
8285;SDS011;4181;43.416;24.598;2023-01-31T08:18:33;18.80;;;12.83;;
8285;SDS011;4181;43.416;24.598;2023-01-31T08:20:59;18.27;;;12.43;;
8285;SDS011;4181;43.416;24.598;2023-01-31T08:23:28;16.93;;;11.70;;
8285;SDS011;4181;43.416;24.598;2023-01-31T08:25:58;17.57;;;11.87;;
8285;SDS011;4181;43.416;24.598;2023-01-31T08:28:28;18.47;;;11.60;;
8285;SDS011;4181;43.416;24.598;2023-01-31T08:30:54;18.43;;;12.17;;
8285;SDS011;4181;43.416;24.598;2023-01-31T08:33:21;19.07;;;12.07;;
8285;SDS011;4181;43.416;24.598;2023-01-31T08:35:47;18.17;;;12.53;;
8285;SDS011;4181;43.416;24.598;2023-01-31T08:38:12;17.77;;;11.67;;
8285;SDS011;4181;43.416;24.598;2023-01-31T08:40:37;16.37;;;11.30;;
8285;SDS011;4181;43.416;24.598;2023-01-31T08:43:03;17.70;;;11.80;;
8285;SDS011;4181;43.416;24.598;2023-01-31T08:45:30;17.77;;;12.97;;
8285;SDS011;4181;43.416;24.598;2023-01-31T08:47:56;19.93;;;11.27;;
8285;SDS011;4181;43.416;24.598;2023-01-31T08:50:23;18.77;;;11.10;;
8285;SDS011;4181;43.416;24.598;2023-01-31T08:52:51;17.67;;;11.53;;
8285;SDS011;4181;43.416;24.598;2023-01-31T08:55:17;18.40;;;12.23;;
8285;SDS011;4181;43.416;24.598;2023-01-31T08:57:43;17.90;;;11.13;;
8285;SDS011;4181;43.416;24.598;2023-01-31T09:00:10;17.10;;;11.43;;
8285;SDS011;4181;43.416;24.598;2023-01-31T09:02:36;15.83;;;10.80;;
8285;SDS011;4181;43.416;24.598;2023-01-31T09:05:01;17.60;;;11.87;;
8285;SDS011;4181;43.416;24.598;2023-01-31T09:07:27;16.20;;;11.53;;
8285;SDS011;4181;43.416;24.598;2023-01-31T09:09:52;29.47;;;18.73;;
8285;SDS011;4181;43.416;24.598;2023-01-31T09:12:18;19.37;;;12.60;;
8285;SDS011;4181;43.416;24.598;2023-01-31T09:14:43;14.57;;;11.23;;
8285;SDS011;4181;43.416;24.598;2023-01-31T09:17:09;17.23;;;10.97;;
8285;SDS011;4181;43.416;24.598;2023-01-31T09:19:35;17.07;;;10.60;;
8285;SDS011;4181;43.416;24.598;2023-01-31T09:22:01;17.07;;;11.10;;
8285;SDS011;4181;43.416;24.598;2023-01-31T09:24:28;16.57;;;11.27;;
8285;SDS011;4181;43.416;24.598;2023-01-31T09:26:53;17.57;;;11.43;;
8285;SDS011;4181;43.416;24.598;2023-01-31T09:29:20;21.30;;;11.60;;
8285;SDS011;4181;43.416;24.598;2023-01-31T09:31:45;29.13;;;18.80;;
8285;SDS011;4181;43.416;24.598;2023-01-31T09:34:14;19.53;;;15.33;;
8285;SDS011;4181;43.416;24.598;2023-01-31T09:36:40;18.87;;;12.10;;
8285;SDS011;4181;43.416;24.598;2023-01-31T09:39:06;18.57;;;10.37;;
8285;SDS011;4181;43.416;24.598;2023-01-31T09:41:36;18.93;;;12.17;;
8285;SDS011;4181;43.416;24.598;2023-01-31T09:52:27;14.97;;;10.03;;
8285;SDS011;4181;43.416;24.598;2023-01-31T09:54:55;13.40;;;9.70;;
8285;SDS011;4181;43.416;24.598;2023-01-31T10:11:22;14.87;;;10.87;;
8285;SDS011;4181;43.416;24.598;2023-01-31T10:13:37;15.70;;;11.90;;
8285;SDS011;4181;43.416;24.598;2023-01-31T10:18:53;13.70;;;11.17;;
8285;SDS011;4181;43.416;24.598;2023-01-31T10:21:24;13.97;;;10.87;;
8285;SDS011;4181;43.416;24.598;2023-01-31T10:24:01;15.13;;;10.53;;
8285;SDS011;4181;43.416;24.598;2023-01-31T10:26:33;13.17;;;9.10;;
8285;SDS011;4181;43.416;24.598;2023-01-31T10:29:09;13.60;;;9.03;;
8285;SDS011;4181;43.416;24.598;2023-01-31T10:31:48;14.03;;;9.63;;
8285;SDS011;4181;43.416;24.598;2023-01-31T10:34:20;12.20;;;8.10;;
8285;SDS011;4181;43.416;24.598;2023-01-31T10:39:36;17.13;;;8.10;;
8285;SDS011;4181;43.416;24.598;2023-01-31T10:42:51;12.33;;;8.33;;
8285;SDS011;4181;43.416;24.598;2023-01-31T10:47:34;9.97;;;7.40;;
8285;SDS011;4181;43.416;24.598;2023-01-31T10:50:04;13.83;;;8.13;;
8285;SDS011;4181;43.416;24.598;2023-01-31T10:52:58;13.07;;;8.53;;
8285;SDS011;4181;43.416;24.598;2023-01-31T10:58:31;10.90;;;8.07;;
8285;SDS011;4181;43.416;24.598;2023-01-31T11:00:59;10.77;;;7.73;;
8285;SDS011;4181;43.416;24.598;2023-01-31T11:03:25;10.17;;;7.63;;
8285;SDS011;4181;43.416;24.598;2023-01-31T11:05:51;12.40;;;8.23;;
8285;SDS011;4181;43.416;24.598;2023-01-31T11:08:27;11.73;;;7.60;;
8285;SDS011;4181;43.416;24.598;2023-01-31T11:10:57;10.30;;;7.77;;
8285;SDS011;4181;43.416;24.598;2023-01-31T11:13:28;17.20;;;13.27;;
8285;SDS011;4181;43.416;24.598;2023-01-31T11:15:53;13.70;;;8.43;;
8285;SDS011;4181;43.416;24.598;2023-01-31T11:20:51;9.17;;;8.20;;
8285;SDS011;4181;43.416;24.598;2023-01-31T11:23:20;10.13;;;7.50;;
8285;SDS011;4181;43.416;24.598;2023-01-31T11:25:50;10.23;;;8.00;;
8285;SDS011;4181;43.416;24.598;2023-01-31T11:28:21;15.33;;;8.57;;
8285;SDS011;4181;43.416;24.598;2023-01-31T11:30:52;12.20;;;7.80;;
8285;SDS011;4181;43.416;24.598;2023-01-31T11:33:38;10.23;;;7.83;;
8285;SDS011;4181;43.416;24.598;2023-01-31T11:36:08;11.70;;;8.03;;
8285;SDS011;4181;43.416;24.598;2023-01-31T11:38:38;11.13;;;7.80;;
8285;SDS011;4181;43.416;24.598;2023-01-31T11:44:13;9.00;;;7.23;;
8285;SDS011;4181;43.416;24.598;2023-01-31T11:49:15;13.50;;;8.30;;
8285;SDS011;4181;43.416;24.598;2023-01-31T11:51:47;15.37;;;7.40;;
8285;SDS011;4181;43.416;24.598;2023-01-31T11:54:16;11.10;;;7.63;;
8285;SDS011;4181;43.416;24.598;2023-01-31T11:56:45;10.37;;;6.90;;
8285;SDS011;4181;43.416;24.598;2023-01-31T11:59:12;14.23;;;7.40;;
8285;SDS011;4181;43.416;24.598;2023-01-31T12:01:47;10.67;;;6.90;;
8285;SDS011;4181;43.416;24.598;2023-01-31T12:04:16;8.70;;;6.30;;
8285;SDS011;4181;43.416;24.598;2023-01-31T12:06:54;10.83;;;7.40;;
8285;SDS011;4181;43.416;24.598;2023-01-31T12:09:22;12.60;;;8.93;;
8285;SDS011;4181;43.416;24.598;2023-01-31T12:11:54;13.17;;;9.23;;
8285;SDS011;4181;43.416;24.598;2023-01-31T12:14:20;8.33;;;7.00;;
8285;SDS011;4181;43.416;24.598;2023-01-31T12:16:46;12.53;;;6.33;;
8285;SDS011;4181;43.416;24.598;2023-01-31T12:19:20;9.07;;;7.90;;
8285;SDS011;4181;43.416;24.598;2023-01-31T12:24:52;11.73;;;7.30;;
8285;SDS011;4181;43.416;24.598;2023-01-31T12:46:56;9.30;;;7.27;;
8285;SDS011;4181;43.416;24.598;2023-01-31T12:52:54;11.87;;;7.83;;
8285;SDS011;4181;43.416;24.598;2023-01-31T12:55:40;19.03;;;12.53;;
8285;SDS011;4181;43.416;24.598;2023-01-31T13:03:37;15.60;;;11.63;;
8285;SDS011;4181;43.416;24.598;2023-01-31T13:06:27;12.10;;;9.60;;
8285;SDS011;4181;43.416;24.598;2023-01-31T13:09:00;11.60;;;9.03;;
8285;SDS011;4181;43.416;24.598;2023-01-31T13:12:17;12.47;;;8.40;;
8285;SDS011;4181;43.416;24.598;2023-01-31T13:14:42;10.10;;;7.37;;
8285;SDS011;4181;43.416;24.598;2023-01-31T13:17:13;14.13;;;8.10;;
8285;SDS011;4181;43.416;24.598;2023-01-31T13:22:29;11.50;;;7.27;;
8285;SDS011;4181;43.416;24.598;2023-01-31T13:27:39;14.57;;;7.97;;
8285;SDS011;4181;43.416;24.598;2023-01-31T13:30:23;11.10;;;7.00;;
8285;SDS011;4181;43.416;24.598;2023-01-31T13:32:58;9.17;;;6.70;;
8285;SDS011;4181;43.416;24.598;2023-01-31T13:35:29;13.13;;;8.53;;
8285;SDS011;4181;43.416;24.598;2023-01-31T13:37:59;11.90;;;7.80;;
8285;SDS011;4181;43.416;24.598;2023-01-31T13:40:30;11.17;;;8.23;;
8285;SDS011;4181;43.416;24.598;2023-01-31T13:43:04;10.20;;;7.80;;
8285;SDS011;4181;43.416;24.598;2023-01-31T13:45:40;12.87;;;9.10;;
8285;SDS011;4181;43.416;24.598;2023-01-31T13:48:16;13.53;;;7.73;;
8285;SDS011;4181;43.416;24.598;2023-01-31T13:53:56;8.13;;;6.37;;
8285;SDS011;4181;43.416;24.598;2023-01-31T13:56:29;9.17;;;6.60;;
8285;SDS011;4181;43.416;24.598;2023-01-31T13:58:59;7.90;;;5.63;;
8285;SDS011;4181;43.416;24.598;2023-01-31T14:01:33;9.63;;;7.50;;
8285;SDS011;4181;43.416;24.598;2023-01-31T14:11:50;14.67;;;8.90;;
8285;SDS011;4181;43.416;24.598;2023-01-31T14:14:20;10.87;;;7.83;;
8285;SDS011;4181;43.416;24.598;2023-01-31T14:17:12;9.33;;;6.63;;
8285;SDS011;4181;43.416;24.598;2023-01-31T14:22:25;10.20;;;7.73;;
8285;SDS011;4181;43.416;24.598;2023-01-31T14:25:38;9.93;;;6.43;;
8285;SDS011;4181;43.416;24.598;2023-01-31T14:28:08;7.27;;;5.80;;
8285;SDS011;4181;43.416;24.598;2023-01-31T14:33:16;8.40;;;5.00;;
8285;SDS011;4181;43.416;24.598;2023-01-31T14:52:59;35.20;;;17.30;;
8285;SDS011;4181;43.416;24.598;2023-01-31T14:58:28;16.50;;;7.33;;
8285;SDS011;4181;43.416;24.598;2023-01-31T15:01:00;6.07;;;5.00;;
8285;SDS011;4181;43.416;24.598;2023-01-31T15:03:35;8.10;;;5.60;;
8285;SDS011;4181;43.416;24.598;2023-01-31T15:06:08;8.60;;;5.70;;
8285;SDS011;4181;43.416;24.598;2023-01-31T15:08:48;5.70;;;4.30;;
8285;SDS011;4181;43.416;24.598;2023-01-31T15:18:54;11.10;;;6.30;;
8285;SDS011;4181;43.416;24.598;2023-01-31T15:21:44;9.93;;;5.57;;
8285;SDS011;4181;43.416;24.598;2023-01-31T15:24:15;6.37;;;5.20;;
8285;SDS011;4181;43.416;24.598;2023-01-31T15:26:49;6.47;;;5.07;;
8285;SDS011;4181;43.416;24.598;2023-01-31T15:29:28;8.87;;;5.13;;
8285;SDS011;4181;43.416;24.598;2023-01-31T15:32:05;6.50;;;4.73;;
8285;SDS011;4181;43.416;24.598;2023-01-31T15:34:46;6.17;;;4.90;;
8285;SDS011;4181;43.416;24.598;2023-01-31T15:37:22;6.17;;;5.20;;
8285;SDS011;4181;43.416;24.598;2023-01-31T15:40:35;20.87;;;12.30;;
8285;SDS011;4181;43.416;24.598;2023-01-31T15:42:42;11.63;;;7.80;;
8285;SDS011;4181;43.416;24.598;2023-01-31T15:45:16;10.50;;;7.50;;
8285;SDS011;4181;43.416;24.598;2023-01-31T15:47:53;13.33;;;8.17;;
8285;SDS011;4181;43.416;24.598;2023-01-31T15:50:29;11.63;;;7.80;;
8285;SDS011;4181;43.416;24.598;2023-01-31T15:53:01;12.53;;;8.70;;
8285;SDS011;4181;43.416;24.598;2023-01-31T15:55:32;7.73;;;6.03;;
8285;SDS011;4181;43.416;24.598;2023-01-31T15:58:00;9.83;;;7.00;;
8285;SDS011;4181;43.416;24.598;2023-01-31T16:00:28;17.60;;;11.90;;
8285;SDS011;4181;43.416;24.598;2023-01-31T16:02:56;12.13;;;6.40;;
8285;SDS011;4181;43.416;24.598;2023-01-31T16:05:27;10.90;;;6.27;;
8285;SDS011;4181;43.416;24.598;2023-01-31T16:07:57;26.33;;;14.20;;
8285;SDS011;4181;43.416;24.598;2023-01-31T16:10:25;9.13;;;5.87;;
8285;SDS011;4181;43.416;24.598;2023-01-31T16:12:52;9.20;;;6.10;;
8285;SDS011;4181;43.416;24.598;2023-01-31T16:15:21;8.20;;;5.60;;
8285;SDS011;4181;43.416;24.598;2023-01-31T16:17:49;7.80;;;5.93;;
8285;SDS011;4181;43.416;24.598;2023-01-31T16:23:02;6.10;;;5.10;;
8285;SDS011;4181;43.416;24.598;2023-01-31T16:25:28;7.70;;;4.53;;
8285;SDS011;4181;43.416;24.598;2023-01-31T16:27:58;5.30;;;4.73;;
8285;SDS011;4181;43.416;24.598;2023-01-31T16:30:26;5.80;;;4.47;;
8285;SDS011;4181;43.416;24.598;2023-01-31T16:32:52;6.70;;;4.90;;
8285;SDS011;4181;43.416;24.598;2023-01-31T16:35:23;7.87;;;4.50;;
8285;SDS011;4181;43.416;24.598;2023-01-31T16:38:33;8.57;;;4.90;;
8285;SDS011;4181;43.416;24.598;2023-01-31T16:40:46;8.53;;;5.80;;
8285;SDS011;4181;43.416;24.598;2023-01-31T16:43:19;19.50;;;12.03;;
8285;SDS011;4181;43.416;24.598;2023-01-31T16:45:57;12.60;;;8.13;;
8285;SDS011;4181;43.416;24.598;2023-01-31T16:48:25;10.60;;;6.40;;
8285;SDS011;4181;43.416;24.598;2023-01-31T16:50:59;8.73;;;5.27;;
8285;SDS011;4181;43.416;24.598;2023-01-31T16:53:44;7.20;;;4.30;;
8285;SDS011;4181;43.416;24.598;2023-01-31T16:58:52;5.57;;;3.97;;
8285;SDS011;4181;43.416;24.598;2023-01-31T17:01:39;6.80;;;4.00;;
8285;SDS011;4181;43.416;24.598;2023-01-31T17:04:13;9.57;;;5.23;;
8285;SDS011;4181;43.416;24.598;2023-01-31T17:06:41;5.30;;;4.27;;
8285;SDS011;4181;43.416;24.598;2023-01-31T17:09:11;5.67;;;4.43;;
8285;SDS011;4181;43.416;24.598;2023-01-31T17:11:40;6.87;;;4.90;;
8285;SDS011;4181;43.416;24.598;2023-01-31T17:14:07;5.00;;;4.33;;
8285;SDS011;4181;43.416;24.598;2023-01-31T17:16:33;7.70;;;5.53;;
8285;SDS011;4181;43.416;24.598;2023-01-31T17:18:58;6.67;;;4.10;;
8285;SDS011;4181;43.416;24.598;2023-01-31T17:21:24;6.30;;;4.03;;
8285;SDS011;4181;43.416;24.598;2023-01-31T17:23:50;6.03;;;4.47;;
8285;SDS011;4181;43.416;24.598;2023-01-31T17:26:17;7.07;;;4.80;;
8285;SDS011;4181;43.416;24.598;2023-01-31T17:28:43;6.23;;;5.07;;
8285;SDS011;4181;43.416;24.598;2023-01-31T17:31:13;8.47;;;5.67;;
8285;SDS011;4181;43.416;24.598;2023-01-31T17:33:45;7.60;;;5.23;;